sensor_id;sensor_type;location;lat;lon;timestamp;pressure;altitude;pressure_sealevel;temperature;humidity
63654;BME280;49809;47.418;19.080;2023-05-01T00:03:01;100781.66;;;8.93;98.11
63654;BME280;49809;47.418;19.080;2023-05-01T00:06:31;100779.09;;;8.86;97.87
63654;BME280;49809;47.418;19.080;2023-05-01T00:09:59;100775.56;;;8.81;97.48
63654;BME280;49809;47.418;19.080;2023-05-01T00:13:19;100775.19;;;8.77;97.91
63654;BME280;49809;47.418;19.080;2023-05-01T00:16:49;100772.00;;;8.75;97.42
63654;BME280;49809;47.418;19.080;2023-05-01T00:20:18;100769.78;;;8.72;97.83
63654;BME280;49809;47.418;19.080;2023-05-01T00:23:53;100766.47;;;8.65;97.42
63654;BME280;49809;47.418;19.080;2023-05-01T00:27:31;100768.38;;;8.58;97.64
63654;BME280;49809;47.418;19.080;2023-05-01T00:31:11;100764.25;;;8.50;97.51
63654;BME280;49809;47.418;19.080;2023-05-01T00:34:33;100762.31;;;8.46;98.31
63654;BME280;49809;47.418;19.080;2023-05-01T00:38:07;100769.19;;;8.47;98.36
63654;BME280;49809;47.418;19.080;2023-05-01T00:41:42;100762.72;;;8.43;98.30
63654;BME280;49809;47.418;19.080;2023-05-01T00:45:01;100771.31;;;8.38;98.08
63654;BME280;49809;47.418;19.080;2023-05-01T00:48:30;100781.88;;;8.38;98.25
63654;BME280;49809;47.418;19.080;2023-05-01T00:52:07;100780.19;;;8.25;97.92
63654;BME280;49809;47.418;19.080;2023-05-01T00:55:25;100781.34;;;8.18;98.17
63654;BME280;49809;47.418;19.080;2023-05-01T00:58:49;100783.38;;;8.16;98.58
63654;BME280;49809;47.418;19.080;2023-05-01T01:02:10;100784.62;;;8.13;98.39
63654;BME280;49809;47.418;19.080;2023-05-01T01:05:56;100781.41;;;8.11;98.33
63654;BME280;49809;47.418;19.080;2023-05-01T01:09:54;100793.56;;;8.12;98.66
63654;BME280;49809;47.418;19.080;2023-05-01T01:13:38;100787.56;;;8.05;98.84
63654;BME280;49809;47.418;19.080;2023-05-01T01:17:40;100786.63;;;8.00;98.71
63654;BME280;49809;47.418;19.080;2023-05-01T01:21:22;100789.31;;;8.11;98.74
63654;BME280;49809;47.418;19.080;2023-05-01T01:37:07;100776.25;;;8.35;96.61
63654;BME280;49809;47.418;19.080;2023-05-01T01:44:32;100786.59;;;8.48;96.62
63654;BME280;49809;47.418;19.080;2023-05-01T01:48:13;100778.00;;;8.52;94.66
63654;BME280;49809;47.418;19.080;2023-05-01T01:51:51;100775.06;;;8.60;94.22
63654;BME280;49809;47.418;19.080;2023-05-01T01:55:13;100778.53;;;8.72;94.04
63654;BME280;49809;47.418;19.080;2023-05-01T01:58:35;100774.03;;;8.73;93.73
63654;BME280;49809;47.418;19.080;2023-05-01T02:01:57;100770.16;;;8.76;94.20
63654;BME280;49809;47.418;19.080;2023-05-01T02:05:15;100767.41;;;8.82;93.89
63654;BME280;49809;47.418;19.080;2023-05-01T02:08:35;100769.81;;;8.84;94.06
63654;BME280;49809;47.418;19.080;2023-05-01T02:12:05;100774.62;;;8.75;93.82
63654;BME280;49809;47.418;19.080;2023-05-01T02:15:29;100766.59;;;8.70;94.17
63654;BME280;49809;47.418;19.080;2023-05-01T02:18:49;100768.50;;;8.63;94.32
63654;BME280;49809;47.418;19.080;2023-05-01T02:22:20;100763.69;;;8.60;95.25
63654;BME280;49809;47.418;19.080;2023-05-01T02:25:39;100762.97;;;8.53;95.31
63654;BME280;49809;47.418;19.080;2023-05-01T02:29:30;100765.50;;;8.48;95.48
63654;BME280;49809;47.418;19.080;2023-05-01T02:32:49;100766.97;;;8.44;95.71
63654;BME280;49809;47.418;19.080;2023-05-01T02:36:07;100764.81;;;8.41;95.76
63654;BME280;49809;47.418;19.080;2023-05-01T02:39:43;100765.63;;;8.41;95.56
63654;BME280;49809;47.418;19.080;2023-05-01T02:43:19;100767.19;;;8.31;95.72
63654;BME280;49809;47.418;19.080;2023-05-01T02:46:42;100773.91;;;8.26;96.14
63654;BME280;49809;47.418;19.080;2023-05-01T02:50:21;100769.81;;;8.31;96.03
63654;BME280;49809;47.418;19.080;2023-05-01T02:53:45;100777.53;;;8.32;95.75
63654;BME280;49809;47.418;19.080;2023-05-01T02:57:22;100778.88;;;8.35;96.18
63654;BME280;49809;47.418;19.080;2023-05-01T03:01:13;100790.03;;;8.37;96.55
63654;BME280;49809;47.418;19.080;2023-05-01T03:04:32;100795.06;;;8.38;97.05
63654;BME280;49809;47.418;19.080;2023-05-01T03:08:08;100786.81;;;8.35;96.53
63654;BME280;49809;47.418;19.080;2023-05-01T03:11:48;100789.31;;;8.29;96.25
63654;BME280;49809;47.418;19.080;2023-05-01T03:15:21;100798.22;;;8.28;96.57
63654;BME280;49809;47.418;19.080;2023-05-01T03:18:40;100794.88;;;8.21;96.92
63654;BME280;49809;47.418;19.080;2023-05-01T03:22:08;100794.28;;;8.19;97.02
63654;BME280;49809;47.418;19.080;2023-05-01T03:25:53;100802.50;;;8.11;97.44
63654;BME280;49809;47.418;19.080;2023-05-01T03:29:14;100804.13;;;8.12;98.21
63654;BME280;49809;47.418;19.080;2023-05-01T03:32:45;100803.75;;;8.09;98.52
63654;BME280;49809;47.418;19.080;2023-05-01T03:36:04;100799.28;;;8.09;98.67
63654;BME280;49809;47.418;19.080;2023-05-01T03:39:40;100809.53;;;8.17;99.25
63654;BME280;49809;47.418;19.080;2023-05-01T03:43:09;100802.19;;;8.19;98.97
63654;BME280;49809;47.418;19.080;2023-05-01T03:46:38;100806.78;;;8.24;99.27
63654;BME280;49809;47.418;19.080;2023-05-01T03:50:23;100805.56;;;8.26;98.89
63654;BME280;49809;47.418;19.080;2023-05-01T03:53:59;100809.66;;;8.22;98.46
63654;BME280;49809;47.418;19.080;2023-05-01T03:57:44;100811.84;;;8.25;98.53
63654;BME280;49809;47.418;19.080;2023-05-01T04:01:20;100808.41;;;8.25;98.72
63654;BME280;49809;47.418;19.080;2023-05-01T04:04:38;100806.22;;;8.22;98.60
63654;BME280;49809;47.418;19.080;2023-05-01T04:08:12;100805.97;;;8.23;98.54
63654;BME280;49809;47.418;19.080;2023-05-01T04:11:53;100807.03;;;8.22;98.49
63654;BME280;49809;47.418;19.080;2023-05-01T04:15:14;100807.59;;;8.24;98.90
63654;BME280;49809;47.418;19.080;2023-05-01T04:18:47;100812.81;;;8.31;99.43
63654;BME280;49809;47.418;19.080;2023-05-01T04:22:21;100818.91;;;8.32;99.10
63654;BME280;49809;47.418;19.080;2023-05-01T04:25:52;100814.78;;;8.36;98.86
63654;BME280;49809;47.418;19.080;2023-05-01T04:29:11;100810.81;;;8.45;98.95
63654;BME280;49809;47.418;19.080;2023-05-01T04:32:28;100813.72;;;8.55;98.07
63654;BME280;49809;47.418;19.080;2023-05-01T04:35:47;100809.75;;;8.76;96.70
63654;BME280;49809;47.418;19.080;2023-05-01T04:39:06;100810.47;;;8.94;95.08
63654;BME280;49809;47.418;19.080;2023-05-01T04:42:40;100814.28;;;9.10;93.41
63654;BME280;49809;47.418;19.080;2023-05-01T04:45:58;100812.44;;;9.34;90.09
63654;BME280;49809;47.418;19.080;2023-05-01T04:49:26;100818.03;;;9.49;89.53
63654;BME280;49809;47.418;19.080;2023-05-01T04:52:43;100820.00;;;9.65;88.76
63654;BME280;49809;47.418;19.080;2023-05-01T04:56:21;100822.97;;;9.80;86.32
63654;BME280;49809;47.418;19.080;2023-05-01T04:59:42;100822.19;;;10.08;81.06
63654;BME280;49809;47.418;19.080;2023-05-01T05:03:16;100821.25;;;10.26;81.08
63654;BME280;49809;47.418;19.080;2023-05-01T05:07:05;100829.91;;;10.50;75.79
63654;BME280;49809;47.418;19.080;2023-05-01T05:10:37;100833.37;;;10.67;74.62
63654;BME280;49809;47.418;19.080;2023-05-01T05:14:09;100819.72;;;10.75;74.76
63654;BME280;49809;47.418;19.080;2023-05-01T05:17:51;100816.87;;;10.93;71.38
63654;BME280;49809;47.418;19.080;2023-05-01T05:21:20;100826.03;;;11.02;70.41
63654;BME280;49809;47.418;19.080;2023-05-01T05:24:51;100829.06;;;11.11;69.44
63654;BME280;49809;47.418;19.080;2023-05-01T05:28:19;100828.72;;;11.24;68.94
63654;BME280;49809;47.418;19.080;2023-05-01T05:31:40;100824.69;;;11.38;63.89
63654;BME280;49809;47.418;19.080;2023-05-01T05:35:13;100827.69;;;11.63;65.11
63654;BME280;49809;47.418;19.080;2023-05-01T05:38:47;100833.87;;;11.69;64.44
63654;BME280;49809;47.418;19.080;2023-05-01T05:42:05;100835.09;;;11.78;63.34
63654;BME280;49809;47.418;19.080;2023-05-01T05:45:22;100832.12;;;11.96;61.98
63654;BME280;49809;47.418;19.080;2023-05-01T05:48:41;100827.75;;;12.07;62.17
63654;BME280;49809;47.418;19.080;2023-05-01T05:52:11;100839.00;;;12.14;60.82
63654;BME280;49809;47.418;19.080;2023-05-01T05:55:49;100838.59;;;12.27;58.70
63654;BME280;49809;47.418;19.080;2023-05-01T05:59:06;100828.62;;;12.39;56.68
63654;BME280;49809;47.418;19.080;2023-05-01T06:02:41;100832.03;;;12.61;53.04
63654;BME280;49809;47.418;19.080;2023-05-01T06:06:05;100827.88;;;12.71;53.30
63654;BME280;49809;47.418;19.080;2023-05-01T06:09:33;100838.59;;;12.81;50.50
63654;BME280;49809;47.418;19.080;2023-05-01T06:12:50;100838.47;;;12.97;51.87
63654;BME280;49809;47.418;19.080;2023-05-01T06:16:24;100833.66;;;13.21;50.63
63654;BME280;49809;47.418;19.080;2023-05-01T06:19:41;100828.12;;;13.33;47.09
63654;BME280;49809;47.418;19.080;2023-05-01T06:23:07;100844.66;;;13.40;47.06
63654;BME280;49809;47.418;19.080;2023-05-01T06:26:42;100837.56;;;13.51;45.70
63654;BME280;49809;47.418;19.080;2023-05-01T06:30:16;100840.69;;;13.42;45.44
63654;BME280;49809;47.418;19.080;2023-05-01T06:33:36;100845.78;;;13.49;45.82
63654;BME280;49809;47.418;19.080;2023-05-01T06:37:04;100842.97;;;13.71;46.15
63654;BME280;49809;47.418;19.080;2023-05-01T06:40:42;100843.31;;;13.79;45.40
63654;BME280;49809;47.418;19.080;2023-05-01T06:44:14;100843.13;;;14.01;46.13
63654;BME280;49809;47.418;19.080;2023-05-01T06:47:31;100848.53;;;14.26;44.46
63654;BME280;49809;47.418;19.080;2023-05-01T06:50:48;100850.13;;;14.27;44.18
63654;BME280;49809;47.418;19.080;2023-05-01T06:54:22;100842.72;;;14.40;43.43
63654;BME280;49809;47.418;19.080;2023-05-01T06:57:43;100844.09;;;14.42;42.52
63654;BME280;49809;47.418;19.080;2023-05-01T07:01:02;100845.97;;;14.47;41.85
63654;BME280;49809;47.418;19.080;2023-05-01T07:04:30;100851.84;;;14.74;42.76
63654;BME280;49809;47.418;19.080;2023-05-01T07:07:57;100838.28;;;14.86;42.35
63654;BME280;49809;47.418;19.080;2023-05-01T07:11:14;100846.00;;;14.97;41.16
63654;BME280;49809;47.418;19.080;2023-05-01T07:14:44;100842.81;;;15.00;42.60
63654;BME280;49809;47.418;19.080;2023-05-01T07:17:49;100843.87;;;15.09;41.72
63654;BME280;49809;47.418;19.080;2023-05-01T07:21:12;100849.97;;;15.25;41.23
63654;BME280;49809;47.418;19.080;2023-05-01T07:24:35;100853.44;;;15.26;42.21
63654;BME280;49809;47.418;19.080;2023-05-01T07:27:38;100847.59;;;15.34;42.58
63654;BME280;49809;47.418;19.080;2023-05-01T07:31:21;100843.31;;;15.43;42.27
63654;BME280;49809;47.418;19.080;2023-05-01T07:34:25;100845.41;;;15.71;42.96
63654;BME280;49809;47.418;19.080;2023-05-01T07:37:31;100847.16;;;16.01;40.83
63654;BME280;49809;47.418;19.080;2023-05-01T07:40:36;100839.09;;;16.11;41.12
63654;BME280;49809;47.418;19.080;2023-05-01T07:43:41;100843.50;;;16.41;40.14
63654;BME280;49809;47.418;19.080;2023-05-01T07:47:04;100843.44;;;16.46;39.74
63654;BME280;49809;47.418;19.080;2023-05-01T07:50:10;100848.72;;;16.61;38.66
63654;BME280;49809;47.418;19.080;2023-05-01T07:53:34;100836.87;;;17.35;37.88
63654;BME280;49809;47.418;19.080;2023-05-01T07:57:22;100837.25;;;18.00;38.38
63654;BME280;49809;47.418;19.080;2023-05-01T08:00:29;100843.47;;;18.56;36.72
63654;BME280;49809;47.418;19.080;2023-05-01T08:03:53;100837.53;;;18.78;35.29
63654;BME280;49809;47.418;19.080;2023-05-01T08:06:59;100846.41;;;18.74;34.34
63654;BME280;49809;47.418;19.080;2023-05-01T08:10:39;100840.19;;;19.57;32.86
63654;BME280;49809;47.418;19.080;2023-05-01T08:13:43;100844.00;;;19.83;33.16
63654;BME280;49809;47.418;19.080;2023-05-01T08:17:08;100844.66;;;20.02;31.96
63654;BME280;49809;47.418;19.080;2023-05-01T08:20:30;100836.28;;;20.31;30.27
63654;BME280;49809;47.418;19.080;2023-05-01T08:23:37;100829.63;;;20.01;30.62
63654;BME280;49809;47.418;19.080;2023-05-01T08:26:42;100838.31;;;20.92;30.77
63654;BME280;49809;47.418;19.080;2023-05-01T08:30:03;100839.94;;;21.55;30.62
63654;BME280;49809;47.418;19.080;2023-05-01T08:33:10;100823.31;;;21.53;30.45
63654;BME280;49809;47.418;19.080;2023-05-01T08:36:16;100825.88;;;22.15;29.53
63654;BME280;49809;47.418;19.080;2023-05-01T08:39:38;100822.00;;;21.90;28.61
63654;BME280;49809;47.418;19.080;2023-05-01T08:43:05;100823.81;;;22.12;29.22
63654;BME280;49809;47.418;19.080;2023-05-01T08:46:33;100823.69;;;22.51;27.08
63654;BME280;49809;47.418;19.080;2023-05-01T08:49:42;100826.34;;;23.03;27.17
63654;BME280;49809;47.418;19.080;2023-05-01T08:52:49;100820.34;;;22.71;27.24
63654;BME280;49809;47.418;19.080;2023-05-01T08:56:16;100824.50;;;23.32;27.69
63654;BME280;49809;47.418;19.080;2023-05-01T08:59:22;100828.53;;;23.18;27.42
63654;BME280;49809;47.418;19.080;2023-05-01T09:02:30;100831.16;;;23.81;27.10
63654;BME280;49809;47.418;19.080;2023-05-01T09:05:38;100826.50;;;23.44;26.95
63654;BME280;49809;47.418;19.080;2023-05-01T09:08:42;100831.41;;;23.89;26.79
63654;BME280;49809;47.418;19.080;2023-05-01T09:11:47;100818.72;;;24.10;26.61
63654;BME280;49809;47.418;19.080;2023-05-01T09:15:15;100826.09;;;24.30;25.48
63654;BME280;49809;47.418;19.080;2023-05-01T09:18:18;100826.94;;;24.76;25.13
63654;BME280;49809;47.418;19.080;2023-05-01T09:21:54;100820.41;;;24.77;24.26
63654;BME280;49809;47.418;19.080;2023-05-01T09:25:17;100818.28;;;25.15;23.48
63654;BME280;49809;47.418;19.080;2023-05-01T09:28:47;100817.56;;;24.94;24.08
63654;BME280;49809;47.418;19.080;2023-05-01T09:31:52;100811.88;;;25.44;25.63
63654;BME280;49809;47.418;19.080;2023-05-01T09:35:53;100815.38;;;25.20;25.50
63654;BME280;49809;47.418;19.080;2023-05-01T09:39:24;100818.28;;;25.15;25.65
63654;BME280;49809;47.418;19.080;2023-05-01T09:43:00;100820.09;;;25.23;23.55
63654;BME280;49809;47.418;19.080;2023-05-01T09:46:42;100814.94;;;25.30;24.40
63654;BME280;49809;47.418;19.080;2023-05-01T09:50:30;100814.03;;;25.26;24.10
63654;BME280;49809;47.418;19.080;2023-05-01T09:54:18;100808.19;;;25.85;24.52
63654;BME280;49809;47.418;19.080;2023-05-01T09:57:43;100804.53;;;26.45;22.36
63654;BME280;49809;47.418;19.080;2023-05-01T10:01:01;100808.19;;;25.73;24.20
63654;BME280;49809;47.418;19.080;2023-05-01T10:04:14;100802.59;;;26.06;24.08
63654;BME280;49809;47.418;19.080;2023-05-01T10:07:25;100784.41;;;26.46;22.53
63654;BME280;49809;47.418;19.080;2023-05-01T10:11:13;100792.44;;;26.03;23.33
63654;BME280;49809;47.418;19.080;2023-05-01T10:14:18;100781.22;;;26.44;23.27
63654;BME280;49809;47.418;19.080;2023-05-01T10:17:22;100777.75;;;26.87;23.26
63654;BME280;49809;47.418;19.080;2023-05-01T10:20:58;100768.78;;;26.71;23.67
63654;BME280;49809;47.418;19.080;2023-05-01T10:24:02;100774.88;;;27.43;23.15
63654;BME280;49809;47.418;19.080;2023-05-01T10:27:07;100776.84;;;27.77;22.02
63654;BME280;49809;47.418;19.080;2023-05-01T10:31:01;100777.69;;;26.99;21.73
63654;BME280;49809;47.418;19.080;2023-05-01T10:34:33;100766.63;;;27.23;23.27
63654;BME280;49809;47.418;19.080;2023-05-01T10:37:57;100762.13;;;27.47;21.73
63654;BME280;49809;47.418;19.080;2023-05-01T10:45:38;100751.87;;;26.77;23.78
63654;BME280;49809;47.418;19.080;2023-05-01T10:51:59;100744.09;;;27.07;25.02
63654;BME280;49809;47.418;19.080;2023-05-01T10:55:33;100743.44;;;27.61;23.99
63654;BME280;49809;47.418;19.080;2023-05-01T10:59:01;100742.78;;;27.83;22.20
63654;BME280;49809;47.418;19.080;2023-05-01T11:02:31;100744.97;;;26.80;24.24
63654;BME280;49809;47.418;19.080;2023-05-01T11:13:01;100745.34;;;25.71;25.43
63654;BME280;49809;47.418;19.080;2023-05-01T11:19:44;100741.91;;;27.79;23.93
63654;BME280;49809;47.418;19.080;2023-05-01T11:22:57;100731.19;;;27.36;23.94
63654;BME280;49809;47.418;19.080;2023-05-01T11:26:06;100726.13;;;27.18;23.62
63654;BME280;49809;47.418;19.080;2023-05-01T11:29:31;100727.88;;;26.79;24.06
63654;BME280;49809;47.418;19.080;2023-05-01T11:32:36;100723.41;;;26.87;24.96
63654;BME280;49809;47.418;19.080;2023-05-01T11:35:44;100716.56;;;27.75;23.39
63654;BME280;49809;47.418;19.080;2023-05-01T11:38:54;100715.31;;;27.38;24.27
63654;BME280;49809;47.418;19.080;2023-05-01T11:42:05;100717.22;;;27.88;23.06
63654;BME280;49809;47.418;19.080;2023-05-01T11:45:31;100710.91;;;28.83;22.61
63654;BME280;49809;47.418;19.080;2023-05-01T11:48:34;100710.72;;;29.22;23.06
63654;BME280;49809;47.418;19.080;2023-05-01T11:51:38;100707.44;;;28.86;22.14
63654;BME280;49809;47.418;19.080;2023-05-01T11:55:03;100701.25;;;27.67;24.02
63654;BME280;49809;47.418;19.080;2023-05-01T11:58:10;100704.84;;;28.71;22.69
63654;BME280;49809;47.418;19.080;2023-05-01T12:01:14;100693.63;;;26.75;24.39
63654;BME280;49809;47.418;19.080;2023-05-01T12:04:26;100699.97;;;29.06;21.46
63654;BME280;49809;47.418;19.080;2023-05-01T12:11:17;100696.03;;;28.58;22.72
63654;BME280;49809;47.418;19.080;2023-05-01T12:14:39;100693.72;;;29.58;21.54
63654;BME280;49809;47.418;19.080;2023-05-01T12:17:44;100684.53;;;29.40;21.15
63654;BME280;49809;47.418;19.080;2023-05-01T12:20:51;100677.91;;;28.88;22.40
63654;BME280;49809;47.418;19.080;2023-05-01T12:24:49;100674.44;;;27.50;23.72
63654;BME280;49809;47.418;19.080;2023-05-01T12:27:53;100679.47;;;28.05;23.02
63654;BME280;49809;47.418;19.080;2023-05-01T12:31:02;100675.66;;;27.02;24.52
63654;BME280;49809;47.418;19.080;2023-05-01T12:34:29;100660.06;;;27.14;24.25
63654;BME280;49809;47.418;19.080;2023-05-01T12:37:57;100663.56;;;26.52;24.88
63654;BME280;49809;47.418;19.080;2023-05-01T12:41:03;100661.50;;;25.01;28.34
63654;BME280;49809;47.418;19.080;2023-05-01T12:47:35;100660.22;;;24.62;29.52
63654;BME280;49809;47.418;19.080;2023-05-01T12:50:40;100658.88;;;24.03;29.09
63654;BME280;49809;47.418;19.080;2023-05-01T12:54:04;100648.84;;;23.70;29.30
63654;BME280;49809;47.418;19.080;2023-05-01T12:57:14;100634.63;;;22.73;30.43
63654;BME280;49809;47.418;19.080;2023-05-01T13:00:17;100631.25;;;22.85;30.33
63654;BME280;49809;47.418;19.080;2023-05-01T13:03:23;100630.16;;;23.36;31.21
63654;BME280;49809;47.418;19.080;2023-05-01T13:06:47;100633.03;;;23.31;30.76
63654;BME280;49809;47.418;19.080;2023-05-01T13:12:56;100628.69;;;23.18;30.36
63654;BME280;49809;47.418;19.080;2023-05-01T13:16:53;100627.88;;;23.17;30.85
63654;BME280;49809;47.418;19.080;2023-05-01T13:23:52;100620.47;;;23.06;31.34
63654;BME280;49809;47.418;19.080;2023-05-01T13:27:20;100609.56;;;22.64;31.22
63654;BME280;49809;47.418;19.080;2023-05-01T13:31:10;100615.59;;;22.61;31.94
63654;BME280;49809;47.418;19.080;2023-05-01T13:34:35;100607.44;;;22.32;32.65
63654;BME280;49809;47.418;19.080;2023-05-01T13:38:12;100615.09;;;22.13;33.09
63654;BME280;49809;47.418;19.080;2023-05-01T13:41:56;100602.44;;;22.04;33.73
63654;BME280;49809;47.418;19.080;2023-05-01T13:46:03;100603.63;;;22.33;32.23
63654;BME280;49809;47.418;19.080;2023-05-01T13:49:48;100596.25;;;22.04;32.01
63654;BME280;49809;47.418;19.080;2023-05-01T13:53:26;100598.88;;;22.30;30.97
63654;BME280;49809;47.418;19.080;2023-05-01T13:56:49;100579.28;;;22.12;33.50
63654;BME280;49809;47.418;19.080;2023-05-01T14:00:43;100574.31;;;22.23;32.33
63654;BME280;49809;47.418;19.080;2023-05-01T14:04:30;100574.12;;;22.36;31.96
63654;BME280;49809;47.418;19.080;2023-05-01T14:07:44;100582.59;;;22.09;31.76
63654;BME280;49809;47.418;19.080;2023-05-01T14:11:52;100567.94;;;22.27;31.18
63654;BME280;49809;47.418;19.080;2023-05-01T14:15:30;100579.94;;;22.00;30.60
63654;BME280;49809;47.418;19.080;2023-05-01T14:19:20;100576.75;;;22.07;30.71
63654;BME280;49809;47.418;19.080;2023-05-01T14:22:35;100568.50;;;21.95;31.98
63654;BME280;49809;47.418;19.080;2023-05-01T14:30:35;100567.25;;;21.92;31.63
63654;BME280;49809;47.418;19.080;2023-05-01T14:34:23;100556.00;;;21.82;31.33
63654;BME280;49809;47.418;19.080;2023-05-01T14:37:46;100554.25;;;21.77;32.95
63654;BME280;49809;47.418;19.080;2023-05-01T14:41:21;100547.25;;;21.93;32.46
63654;BME280;49809;47.418;19.080;2023-05-01T14:45:13;100545.19;;;21.90;31.85
63654;BME280;49809;47.418;19.080;2023-05-01T14:48:41;100540.78;;;21.77;32.06
63654;BME280;49809;47.418;19.080;2023-05-01T14:52:19;100531.87;;;21.94;30.84
63654;BME280;49809;47.418;19.080;2023-05-01T14:56:04;100529.94;;;22.12;30.75
63654;BME280;49809;47.418;19.080;2023-05-01T14:59:08;100520.28;;;22.10;31.92
63654;BME280;49809;47.418;19.080;2023-05-01T15:03:04;100524.09;;;22.09;31.80
63654;BME280;49809;47.418;19.080;2023-05-01T15:06:57;100531.66;;;22.25;31.79
63654;BME280;49809;47.418;19.080;2023-05-01T15:10:43;100523.06;;;22.23;30.51
63654;BME280;49809;47.418;19.080;2023-05-01T15:14:07;100526.28;;;22.07;31.38
63654;BME280;49809;47.418;19.080;2023-05-01T15:17:51;100524.44;;;21.99;31.20
63654;BME280;49809;47.418;19.080;2023-05-01T15:21:57;100528.41;;;21.85;32.35
63654;BME280;49809;47.418;19.080;2023-05-01T15:25:32;100531.44;;;21.66;31.80
63654;BME280;49809;47.418;19.080;2023-05-01T15:29:07;100518.31;;;21.47;31.94
63654;BME280;49809;47.418;19.080;2023-05-01T15:32:33;100524.66;;;21.25;32.27
63654;BME280;49809;47.418;19.080;2023-05-01T15:36:39;100516.41;;;21.31;33.12
63654;BME280;49809;47.418;19.080;2023-05-01T15:40:24;100512.16;;;21.30;31.96
63654;BME280;49809;47.418;19.080;2023-05-01T15:48:22;100507.81;;;20.94;32.95
63654;BME280;49809;47.418;19.080;2023-05-01T15:52:12;100505.94;;;20.95;32.76
63654;BME280;49809;47.418;19.080;2023-05-01T15:55:47;100509.88;;;20.89;32.53
63654;BME280;49809;47.418;19.080;2023-05-01T15:59:26;100512.06;;;20.78;33.79
63654;BME280;49809;47.418;19.080;2023-05-01T16:10:55;100513.56;;;20.45;34.18
63654;BME280;49809;47.418;19.080;2023-05-01T16:14:34;100519.94;;;20.26;34.69
63654;BME280;49809;47.418;19.080;2023-05-01T16:22:27;100516.59;;;20.21;33.72
63654;BME280;49809;47.418;19.080;2023-05-01T16:26:26;100506.38;;;20.01;35.77
63654;BME280;49809;47.418;19.080;2023-05-01T16:29:51;100508.53;;;19.90;35.28
63654;BME280;49809;47.418;19.080;2023-05-01T16:33:30;100510.03;;;19.74;35.59
63654;BME280;49809;47.418;19.080;2023-05-01T16:37:23;100504.13;;;19.63;36.03
63654;BME280;49809;47.418;19.080;2023-05-01T16:41:02;100505.78;;;19.50;35.80
63654;BME280;49809;47.418;19.080;2023-05-01T16:44:40;100506.09;;;19.35;36.54
63654;BME280;49809;47.418;19.080;2023-05-01T16:48:40;100508.41;;;19.28;36.73
63654;BME280;49809;47.418;19.080;2023-05-01T16:52:26;100508.16;;;19.16;37.00
63654;BME280;49809;47.418;19.080;2023-05-01T16:55:51;100509.88;;;19.12;36.72
63654;BME280;49809;47.418;19.080;2023-05-01T16:59:25;100497.94;;;19.04;36.68
63654;BME280;49809;47.418;19.080;2023-05-01T17:03:06;100502.16;;;18.97;36.40
63654;BME280;49809;47.418;19.080;2023-05-01T17:06:55;100502.84;;;18.89;36.50
63654;BME280;49809;47.418;19.080;2023-05-01T17:10:30;100506.97;;;18.73;37.31
63654;BME280;49809;47.418;19.080;2023-05-01T17:14:11;100509.34;;;18.60;37.05
63654;BME280;49809;47.418;19.080;2023-05-01T17:17:40;100496.22;;;18.45;37.13
63654;BME280;49809;47.418;19.080;2023-05-01T17:21:19;100506.50;;;17.97;43.24
63654;BME280;49809;47.418;19.080;2023-05-01T17:25:06;100502.28;;;17.77;41.33
63654;BME280;49809;47.418;19.080;2023-05-01T17:28:53;100494.06;;;17.55;42.47
63654;BME280;49809;47.418;19.080;2023-05-01T17:36:29;100488.94;;;17.40;40.63
63654;BME280;49809;47.418;19.080;2023-05-01T17:39:54;100495.13;;;17.22;41.69
63654;BME280;49809;47.418;19.080;2023-05-01T17:43:47;100495.75;;;17.14;40.39
63654;BME280;49809;47.418;19.080;2023-05-01T17:47:17;100498.00;;;17.07;40.14
63654;BME280;49809;47.418;19.080;2023-05-01T17:51:06;100492.81;;;16.97;40.21
63654;BME280;49809;47.418;19.080;2023-05-01T17:54:39;100492.13;;;16.86;40.31
63654;BME280;49809;47.418;19.080;2023-05-01T17:58:18;100490.69;;;16.75;40.46
63654;BME280;49809;47.418;19.080;2023-05-01T18:01:54;100491.16;;;16.58;41.30
63654;BME280;49809;47.418;19.080;2023-05-01T18:06:01;100484.37;;;16.42;41.34
63654;BME280;49809;47.418;19.080;2023-05-01T18:09:36;100487.22;;;16.27;41.73
63654;BME280;49809;47.418;19.080;2023-05-01T18:13:22;100489.81;;;16.08;43.48
63654;BME280;49809;47.418;19.080;2023-05-01T18:25:24;100497.87;;;15.74;44.06
63654;BME280;49809;47.418;19.080;2023-05-01T18:33:13;100499.62;;;15.55;44.06
63654;BME280;49809;47.418;19.080;2023-05-01T18:36:50;100502.81;;;15.57;43.82
63654;BME280;49809;47.418;19.080;2023-05-01T18:40:28;100509.81;;;15.53;44.17
63654;BME280;49809;47.418;19.080;2023-05-01T18:48:01;100512.31;;;15.34;43.93
63654;BME280;49809;47.418;19.080;2023-05-01T18:51:45;100512.63;;;15.28;43.68
63654;BME280;49809;47.418;19.080;2023-05-01T18:55:22;100520.69;;;15.12;44.31
63654;BME280;49809;47.418;19.080;2023-05-01T18:58:44;100520.25;;;15.00;44.81
63654;BME280;49809;47.418;19.080;2023-05-01T19:02:12;100522.44;;;14.88;46.30
63654;BME280;49809;47.418;19.080;2023-05-01T19:05:30;100526.19;;;14.77;46.55
63654;BME280;49809;47.418;19.080;2023-05-01T19:09:11;100529.97;;;14.71;46.02
63654;BME280;49809;47.418;19.080;2023-05-01T19:12:59;100531.87;;;14.60;48.77
63654;BME280;49809;47.418;19.080;2023-05-01T19:16:38;100535.87;;;14.58;46.71
63654;BME280;49809;47.418;19.080;2023-05-01T19:20:12;100530.06;;;14.46;48.36
63654;BME280;49809;47.418;19.080;2023-05-01T19:23:46;100532.16;;;14.33;49.80
63654;BME280;49809;47.418;19.080;2023-05-01T19:27:21;100524.75;;;14.25;48.52
63654;BME280;49809;47.418;19.080;2023-05-01T19:30:43;100531.66;;;14.26;47.56